Weather at Crescent Island Naivasha Airport

Public forecast

Using degrees Celsius for public forecast. Weather courtesy of forecast.io.

Closest aviation weather report (METAR) to Crescent Island Naivasha Airport

Report is more than 6 hours old.

Closest report is Nakuru Airport, 31.6 nm (58.5 km) NNW. Retrieved 2022/09/17 18:00 UTC (18 days ago):

HKNK 171800Z 00000KT 9999 -RA BKN017 BKN080 15/14

Closest aviation forecast (TAF) to Crescent Island Naivasha Airport

Forecast is more than 12 hours old.

Closest forecast is Nairobi Wilson Airport, 41.7 nm (77.1 km) SE. Retrieved 2022/09/17 18:15 UTC (18 days ago):

TAF HKNW 171700Z 1718/1818 07005KT 9999 BECMG 1801/1805 16005KT BKN017 BECMG 1808/1811 15010KT BKN025